Time;durP1;ratioP1;P1;durP2;ratioP2;P2;SDS_P1;SDS_P2;PMS_P1;PMS_P2;Temp;Humidity;BMP_temperature;BMP_pressure;BME280_temperature;BME280_humidity;BME280_pressure;Samples;Min_cycle;Max_cycle;Signal;HPM_P1;HPM_P2
2022/08/20 00:01:18;;;;;;;11.07;4.10;;;24.60;99.70;;;;;;5079162;28;20135;-82
2022/08/20 00:03:43;;;;;;;11.57;4.43;;;24.20;99.30;;;;;;5060259;28;20123;-82
2022/08/20 00:06:16;;;;;;;18.38;4.50;;;25.30;99.50;;;;;;5078104;28;20032;-83
2022/08/20 00:08:43;;;;;;;11.70;4.40;;;24.10;99.40;;;;;;5059370;28;20596;-82
2022/08/20 00:11:19;;;;;;;12.57;3.95;;;24.80;99.20;;;;;;5079359;28;20591;-84
2022/08/20 00:14:01;;;;;;;13.57;4.30;;;24.70;99.70;;;;;;5061353;28;20024;-83
2022/08/20 00:16:37;;;;;;;11.57;3.58;;;24.20;99.40;;;;;;5060267;28;20035;-87
2022/08/20 00:19:09;;;;;;;13.88;3.83;;;24.70;99.90;;;;;;5059740;28;20103;-83
2022/08/20 00:21:39;;;;;;;13.68;3.67;;;24.50;99.10;;;;;;5059610;28;20074;-82
2022/08/20 00:24:05;;;;;;;10.80;3.88;;;24.70;99.60;;;;;;5077688;28;20017;-84
2022/08/20 00:26:31;;;;;;;10.55;3.78;;;24.50;99.90;;;;;;5083312;28;20016;-83
2022/08/20 00:28:57;;;;;;;9.90;3.75;;;24.70;99.10;;;;;;5059621;28;20042;-83
2022/08/20 00:31:27;;;;;;;10.88;4.05;;;24.90;99.90;;;;;;5081330;28;20008;-83
2022/08/20 00:33:53;;;;;;;9.68;3.88;;;25.10;98.90;;;;;;5063595;28;20028;-83
2022/08/20 00:36:26;;;;;;;13.52;4.10;;;24.10;99.90;;;;;;5063339;28;20091;-84
2022/08/20 00:38:51;;;;;;;10.80;4.70;;;25.20;99.50;;;;;;5082130;28;20028;-84
2022/08/20 00:41:22;;;;;;;10.32;4.15;;;24.10;99.90;;;;;;5063923;28;20020;-83
2022/08/20 00:44:04;;;;;;;11.23;4.30;;;24.00;99.40;;;;;;5062790;28;20032;-83
2022/08/20 00:46:30;;;;;;;13.90;5.10;;;24.00;99.30;;;;;;5062848;28;20016;-83
2022/08/20 00:49:02;;;;;;;11.70;3.85;;;23.90;99.40;;;;;;5064478;28;20052;-84
2022/08/20 00:51:37;;;;;;;14.23;3.92;;;26.10;99.90;;;;;;5063858;28;20036;-83
2022/08/20 00:54:19;;;;;;;10.82;4.55;;;23.90;99.90;;;;;;5063598;28;20012;-84
2022/08/20 00:57:09;;;;;;;15.10;5.00;;;22.90;99.80;;;;;;5063077;28;20569;-87
2022/08/20 00:59:43;;;;;;;13.77;4.40;;;23.90;99.90;;;;;;5081908;28;20031;-82
2022/08/20 01:02:15;;;;;;;15.68;4.20;;;23.20;99.90;;;;;;5064742;28;20020;-83
2022/08/20 01:04:53;;;;;;;16.10;4.10;;;23.10;99.90;;;;;;5081091;28;20077;-82
2022/08/20 01:07:31;;;;;;;15.63;4.22;;;23.60;99.90;;;;;;5063053;28;20043;-82
2022/08/20 01:10:01;;;;;;;11.93;4.32;;;23.10;99.90;;;;;;5064027;28;20058;-83
2022/08/20 01:12:28;;;;;;;12.65;4.85;;;23.70;99.90;;;;;;5062772;28;20025;-84
2022/08/20 01:14:58;;;;;;;9.20;3.92;;;23.20;99.90;;;;;;5063273;28;20020;-84
2022/08/20 01:17:33;;;;;;;13.70;4.15;;;23.30;99.90;;;;;;5063476;28;20481;-85
2022/08/20 01:20:37;;;;;;;14.73;4.80;;;23.40;99.90;;;;;;5062451;28;20048;-83
2022/08/20 01:26:33;;;;;;;9.55;4.05;;;23.40;99.90;;;;;;4979095;28;19908;-86
2022/08/20 01:29:26;;;;;;;13.40;4.60;;;23.40;99.90;;;;;;4962669;28;20503;-86
2022/08/20 01:32:00;;;;;;;14.35;4.25;;;23.60;99.90;;;;;;4979141;28;20054;-84
2022/08/20 01:34:27;;;;;;;13.20;4.03;;;23.70;99.90;;;;;;4963063;28;20042;-83
2022/08/20 01:37:03;;;;;;;18.35;5.82;;;24.00;99.90;;;;;;4962483;28;20129;-85
2022/08/20 01:39:33;;;;;;;16.25;5.50;;;23.20;99.90;;;;;;4962333;28;20038;-81
2022/08/20 01:46:40;;;;;;;12.13;4.25;;;24.40;99.90;;;;;;4864207;29;20052;-85
2022/08/20 01:53:35;;;;;;;;;;;;;;;;;;;;;
2022/08/20 02:03:18;;;;;;;16.98;4.90;;;24.30;99.90;;;;;;4684596;30;20062;-87
2022/08/20 02:20:47;;;;;;;11.80;6.03;;;24.40;99.90;;;;;;4666805;30;20574;-85
2022/08/20 02:23:41;;;;;;;15.65;4.40;;;24.50;99.90;;;;;;4677727;30;20050;-84
2022/08/20 02:26:49;;;;;;;7.78;3.75;;;23.00;99.90;;;;;;4695384;30;20037;-86
2022/08/20 02:30:17;;;;;;;16.17;4.38;;;23.10;99.90;;;;;;4719122;30;20883;-85
2022/08/20 02:33:21;;;;;;;14.57;4.75;;;23.20;99.90;;;;;;4785464;29;20110;-84
2022/08/20 02:35:55;;;;;;;15.73;5.15;;;23.20;99.90;;;;;;4778940;29;20758;-84
2022/08/20 02:38:27;;;;;;;12.93;4.63;;;20.30;99.90;;;;;;4793232;29;20137;-85
2022/08/20 02:44:39;;;;;;;;;;;23.60;99.90;;;;;;4812532;29;20057;-86
2022/08/20 02:47:18;;;;;;;15.63;5.22;;;24.60;99.90;;;;;;4871790;29;19907;-85
2022/08/20 02:50:14;;;;;;;13.75;4.55;;;21.90;99.90;;;;;;4915678;28;20046;-85
2022/08/20 02:55:39;;;;;;;14.52;4.25;;;22.00;99.90;;;;;;4843434;29;20112;-84
2022/08/20 02:58:07;;;;;;;19.08;4.70;;;21.50;99.90;;;;;;4844179;29;20784;-76
2022/08/20 03:00:33;;;;;;;18.48;4.70;;;21.10;99.90;;;;;;4843803;29;20056;-83
2022/08/20 03:03:00;;;;;;;13.93;3.80;;;21.10;99.90;;;;;;4843855;29;20038;-84
2022/08/20 03:05:27;;;;;;;11.93;4.28;;;20.40;99.90;;;;;;4850337;29;20054;-81
2022/08/20 03:07:55;;;;;;;19.77;5.07;;;20.40;99.90;;;;;;4899555;29;20024;-80
2022/08/20 03:10:30;;;;;;;19.05;5.32;;;20.10;99.90;;;;;;4899405;29;20124;-84
2022/08/20 03:12:58;;;;;;;13.93;4.78;;;19.80;99.90;;;;;;4899950;29;20728;-80
2022/08/20 03:15:24;;;;;;;14.10;4.28;;;19.60;99.90;;;;;;4900104;29;20048;-79
2022/08/20 03:17:52;;;;;;;13.43;4.20;;;19.50;99.90;;;;;;4899039;29;20630;-83
2022/08/20 03:20:18;;;;;;;12.95;4.65;;;19.60;99.90;;;;;;4899057;29;20035;-75
2022/08/20 03:22:44;;;;;;;17.77;5.95;;;19.00;99.90;;;;;;4899393;29;20038;-84
2022/08/20 03:25:14;;;;;;;13.25;3.70;;;19.30;99.90;;;;;;4901347;28;20059;-82
2022/08/20 03:28:49;;;;;;;12.18;4.25;;;20.90;99.90;;;;;;4957398;28;20057;-90
2022/08/20 03:31:15;;;;;;;12.85;4.13;;;19.30;99.90;;;;;;4999827;28;20025;-89
2022/08/20 03:33:44;;;;;;;11.35;4.85;;;19.10;99.90;;;;;;4999336;28;20697;-83
2022/08/20 03:36:12;;;;;;;20.60;4.97;;;19.30;99.90;;;;;;4998097;28;20064;-79
2022/08/20 03:38:43;;;;;;;14.38;5.22;;;20.30;99.90;;;;;;5014775;28;20025;-79
2022/08/20 03:41:13;;;;;;;13.73;4.47;;;20.30;99.90;;;;;;5015903;28;20057;-85
2022/08/20 03:43:40;;;;;;;15.60;5.70;;;;;;;;;;5000112;28;20034;-76
2022/08/20 03:46:07;;;;;;;15.30;5.32;;;21.50;99.90;;;;;;5015692;28;20273;-85
2022/08/20 03:48:33;;;;;;;11.95;4.80;;;21.50;99.90;;;;;;5018915;28;20041;-81
2022/08/20 03:51:01;;;;;;;10.25;5.03;;;22.10;99.90;;;;;;5035942;28;20836;-81
2022/08/20 03:53:30;;;;;;;10.20;3.90;;;21.90;99.90;;;;;;5038362;28;20674;-82
2022/08/20 03:56:02;;;;;;;11.77;4.90;;;22.20;99.90;;;;;;5038549;28;20095;-82
2022/08/20 03:58:28;;;;;;;11.48;4.20;;;;;;;;;;5018785;28;20028;-80
2022/08/20 04:01:03;;;;;;;15.10;4.93;;;22.40;99.90;;;;;;5022538;28;20021;-86
2022/08/20 04:03:29;;;;;;;11.88;4.45;;;22.30;99.90;;;;;;5077759;28;20186;-86
2022/08/20 04:05:55;;;;;;;15.65;4.85;;;22.20;99.90;;;;;;5077582;28;20704;-81
2022/08/20 04:08:26;;;;;;;14.75;5.47;;;22.60;99.90;;;;;;5077750;28;20104;-79
2022/08/20 04:10:53;;;;;;;11.10;4.53;;;22.60;99.90;;;;;;5059517;28;20024;-80
2022/08/20 04:13:25;;;;;;;17.55;4.82;;;22.50;99.90;;;;;;5058717;28;20036;-79
2022/08/20 04:15:54;;;;;;;15.27;4.93;;;;;;;;;;5077660;28;20020;-75
2022/08/20 04:18:22;;;;;;;11.57;4.88;;;22.20;99.90;;;;;;5044562;28;20054;-74
2022/08/20 04:20:53;;;;;;;18.35;5.22;;;22.40;99.90;;;;;;5058512;28;20036;-83
2022/08/20 04:23:20;;;;;;;10.38;4.30;;;22.30;99.90;;;;;;5040783;28;20560;-87
2022/08/20 04:25:47;;;;;;;10.73;4.35;;;22.30;99.90;;;;;;5058656;28;20023;-81
2022/08/20 04:28:28;;;;;;;22.33;7.25;;;22.10;99.90;;;;;;5058558;28;20009;-83
2022/08/20 04:30:57;;;;;;;13.70;4.97;;;22.30;99.90;;;;;;5040859;28;20055;-87
2022/08/20 04:33:25;;;;;;;11.10;3.90;;;23.00;99.90;;;;;;5079091;28;20644;-77
2022/08/20 04:35:52;;;;;;;11.48;3.92;;;22.50;99.90;;;;;;5079197;28;20043;-83
2022/08/20 04:38:20;;;;;;;15.75;5.35;;;22.70;99.90;;;;;;5078668;28;20103;-89
2022/08/20 04:40:58;;;;;;;12.98;5.45;;;22.80;99.90;;;;;;5078566;28;20027;-76
2022/08/20 04:43:28;;;;;;;14.63;6.72;;;22.80;99.90;;;;;;5091800;28;20016;-86
2022/08/20 04:45:56;;;;;;;16.25;5.00;;;22.70;99.90;;;;;;5088081;28;20046;-84
2022/08/20 04:48:24;;;;;;;17.98;5.72;;;21.50;99.90;;;;;;5082737;28;20028;-90
2022/08/20 04:50:51;;;;;;;14.30;4.78;;;22.60;99.90;;;;;;5082466;28;20529;-86
2022/08/20 04:53:22;;;;;;;14.88;5.45;;;22.70;99.90;;;;;;5060858;28;20036;-88
2022/08/20 04:55:49;;;;;;;18.83;6.25;;;22.70;99.90;;;;;;5078471;28;20091;-86
2022/08/20 04:58:19;;;;;;;15.95;4.95;;;22.30;99.90;;;;;;5078593;28;20741;-84
2022/08/20 05:00:51;;;;;;;20.83;6.13;;;22.50;99.90;;;;;;5059874;28;20028;-82
2022/08/20 05:03:17;;;;;;;17.52;5.55;;;22.40;99.90;;;;;;5058922;28;20020;-86
2022/08/20 05:05:44;;;;;;;16.48;6.38;;;22.50;99.90;;;;;;5077520;28;20016;-81
2022/08/20 05:08:11;;;;;;;11.73;5.78;;;22.80;99.90;;;;;;5060268;28;20103;-82
2022/08/20 05:10:43;;;;;;;15.82;4.80;;;22.60;99.90;;;;;;5078203;28;20095;-87
2022/08/20 05:13:09;;;;;;;11.80;5.60;;;22.80;99.90;;;;;;5060803;28;20032;-76
2022/08/20 05:15:37;;;;;;;17.40;5.78;;;22.60;99.90;;;;;;5062041;28;20020;-87
2022/08/20 05:18:06;;;;;;;14.25;5.15;;;22.90;99.90;;;;;;5082254;28;20024;-90
2022/08/20 05:20:38;;;;;;;15.02;5.45;;;22.40;99.90;;;;;;5064246;28;20036;-87
2022/08/20 05:23:07;;;;;;;13.50;5.28;;;22.40;99.90;;;;;;5089114;28;20012;-79
2022/08/20 05:25:33;;;;;;;15.93;5.50;;;20.40;99.90;;;;;;5070466;28;20565;-78
2022/08/20 05:28:06;;;;;;;12.68;5.47;;;22.70;99.90;;;;;;5064641;28;20058;-81
2022/08/20 05:30:35;;;;;;;20.50;5.27;;;22.70;99.90;;;;;;5081558;28;20016;-76
2022/08/20 05:33:05;;;;;;;11.60;5.60;;;22.70;99.90;;;;;;5081876;28;20870;-78
2022/08/20 05:35:37;;;;;;;16.63;5.90;;;23.10;99.90;;;;;;5081884;28;20086;-90
2022/08/20 05:38:09;;;;;;;17.98;4.60;;;20.20;99.90;;;;;;5064193;28;20051;-84
2022/08/20 05:40:44;;;;;;;13.30;5.18;;;22.90;99.90;;;;;;5081919;28;20103;-81
2022/08/20 05:43:10;;;;;;;15.73;5.85;;;22.90;99.90;;;;;;5082383;28;20032;-86
2022/08/20 05:45:43;;;;;;;14.15;5.68;;;22.90;99.90;;;;;;5081509;28;20024;-82
2022/08/20 05:48:14;;;;;;;21.85;5.55;;;24.30;99.90;;;;;;5082238;28;20024;-87
2022/08/20 05:50:49;;;;;;;15.30;5.30;;;22.90;99.90;;;;;;5081564;28;20017;-86
2022/08/20 05:53:15;;;;;;;11.52;4.90;;;23.00;99.90;;;;;;5064186;28;20277;-79
2022/08/20 05:55:45;;;;;;;12.55;5.15;;;23.10;99.90;;;;;;5081568;28;20008;-84
2022/08/20 05:58:21;;;;;;;11.55;3.90;;;23.00;99.90;;;;;;5081133;28;20581;-89
2022/08/20 06:00:48;;;;;;;15.02;5.43;;;23.00;99.90;;;;;;5063579;28;20052;-84
2022/08/20 06:06:04;;;;;;;14.98;5.78;;;23.30;99.90;;;;;;5088394;28;20093;-91
2022/08/20 06:08:33;;;;;;;13.70;4.57;;;22.60;99.90;;;;;;5091178;28;20019;-85
2022/08/20 06:10:59;;;;;;;12.05;5.03;;;23.10;99.90;;;;;;5082241;28;20669;-87
2022/08/20 06:13:27;;;;;;;15.23;4.97;;;23.10;99.90;;;;;;5063649;28;20028;-81
2022/08/20 06:15:54;;;;;;;14.07;4.95;;;;;;;;;;5082004;28;20637;-79
2022/08/20 06:18:20;;;;;;;15.77;5.05;;;23.30;99.90;;;;;;5063122;28;20031;-87
2022/08/20 06:20:46;;;;;;;12.98;4.43;;;23.40;99.90;;;;;;5063488;28;20097;-90
2022/08/20 06:23:18;;;;;;;14.32;5.15;;;23.60;99.90;;;;;;5081004;28;20016;-84
2022/08/20 06:25:49;;;;;;;16.85;5.10;;;22.30;99.90;;;;;;5078139;28;20012;-87
2022/08/20 06:28:15;;;;;;;12.23;5.53;;;23.30;99.90;;;;;;5060618;28;20037;-80
2022/08/20 06:30:41;;;;;;;14.85;4.38;;;23.40;99.90;;;;;;5061552;28;20055;-79
2022/08/20 06:33:07;;;;;;;12.80;4.88;;;23.80;99.90;;;;;;5077082;28;20040;-79
2022/08/20 06:35:33;;;;;;;12.73;4.35;;;23.40;99.90;;;;;;5080732;28;20664;-81
2022/08/20 06:38:08;;;;;;;12.50;4.88;;;23.40;99.90;;;;;;5062700;28;20759;-78
2022/08/20 06:40:34;;;;;;;14.07;4.97;;;;;;;;;;5061508;28;20036;-84
2022/08/20 06:43:00;;;;;;;11.82;4.90;;;23.50;99.90;;;;;;5079689;28;20662;-79
2022/08/20 06:45:32;;;;;;;10.23;4.38;;;23.50;99.90;;;;;;5079697;28;20060;-88
2022/08/20 06:48:00;;;;;;;17.23;3.95;;;23.60;99.90;;;;;;5079560;28;20019;-81
2022/08/20 06:50:38;;;;;;;19.02;5.97;;;23.20;99.90;;;;;;5061754;28;20028;-79
2022/08/20 06:53:13;;;;;;;17.58;5.43;;;23.60;99.90;;;;;;5062129;28;20531;-78
2022/08/20 06:55:46;;;;;;;15.63;5.15;;;23.40;99.90;;;;;;5079841;28;20026;-88
2022/08/20 06:58:12;;;;;;;15.98;7.45;;;23.30;99.90;;;;;;5082441;28;20102;-85
2022/08/20 07:00:41;;;;;;;23.52;7.20;;;23.20;99.90;;;;;;5081856;28;20622;-78
2022/08/20 07:03:07;;;;;;;19.88;7.80;;;22.90;99.90;;;;;;5060988;28;20031;-80
2022/08/20 07:05:41;;;;;;;22.40;8.93;;;22.70;99.90;;;;;;5079508;28;20028;-80
2022/08/20 07:08:20;;;;;;;;;;;22.50;99.90;;;;;;5080232;28;20012;-79
2022/08/20 07:10:47;;;;;;;15.55;7.55;;;;;;;;;;5061517;28;19915;-77
2022/08/20 07:13:19;;;;;;;27.05;8.02;;;21.90;99.90;;;;;;5079422;28;20027;-84
2022/08/20 07:16:00;;;;;;;19.20;6.95;;;21.80;99.90;;;;;;5060251;28;20036;-79
2022/08/20 07:18:28;;;;;;;21.50;7.70;;;19.80;99.90;;;;;;5060394;28;20602;-81
2022/08/20 07:21:01;;;;;;;17.52;8.23;;;22.20;99.90;;;;;;5079104;28;20029;-81
2022/08/20 07:23:40;;;;;;;20.05;8.68;;;22.10;99.90;;;;;;5079373;28;20659;-85
2022/08/20 07:26:15;;;;;;;18.88;8.52;;;22.00;99.90;;;;;;5078494;28;20100;-76
2022/08/20 07:28:41;;;;;;;19.10;8.38;;;22.40;99.90;;;;;;5078394;28;20016;-82
2022/08/20 07:33:51;;;;;;;23.67;8.25;;;23.00;99.90;;;;;;5081817;28;20128;-75
2022/08/20 07:36:18;;;;;;;17.40;7.78;;;22.40;99.90;;;;;;5071278;28;20662;-79
2022/08/20 07:38:46;;;;;;;19.55;7.35;;;22.50;99.90;;;;;;5060001;28;20067;-84
2022/08/20 07:41:13;;;;;;;23.50;8.15;;;22.70;99.90;;;;;;5079293;28;20027;-85
2022/08/20 07:43:44;;;;;;;21.15;8.68;;;20.60;99.90;;;;;;5078891;28;20212;-79
2022/08/20 07:46:30;;;;;;;16.27;8.40;;;22.70;99.90;;;;;;5078907;28;20024;-77
2022/08/20 07:48:56;;;;;;;19.55;7.47;;;22.70;99.90;;;;;;5077571;28;20664;-78
2022/08/20 07:51:22;;;;;;;21.00;6.55;;;23.00;99.90;;;;;;5078091;28;20681;-77
2022/08/20 07:53:51;;;;;;;19.75;8.55;;;24.70;99.90;;;;;;5079696;28;20020;-80
2022/08/20 07:56:22;;;;;;;16.17;6.45;;;23.40;99.90;;;;;;5062199;28;20020;-81
2022/08/20 07:58:52;;;;;;;15.25;7.28;;;23.80;99.90;;;;;;5080077;28;20024;-86
2022/08/20 08:01:29;;;;;;;15.73;7.57;;;23.70;99.90;;;;;;5053289;28;20059;-84
2022/08/20 08:03:56;;;;;;;22.05;7.85;;;23.90;99.90;;;;;;5042310;28;20024;-77
2022/08/20 08:06:23;;;;;;;18.23;7.15;;;24.80;99.90;;;;;;5041624;28;20596;-84
2022/08/20 08:08:49;;;;;;;25.83;8.00;;;24.00;99.90;;;;;;5060347;28;20013;-93
2022/08/20 08:11:15;;;;;;;23.17;6.93;;;23.90;99.90;;;;;;5058823;28;20106;-84
2022/08/20 08:13:43;;;;;;;16.65;7.75;;;24.40;99.90;;;;;;5057448;28;20025;-79
2022/08/20 08:16:09;;;;;;;15.60;6.45;;;24.10;99.90;;;;;;5039808;28;20031;-85
2022/08/20 08:18:48;;;;;;;17.83;6.88;;;24.40;99.90;;;;;;5057487;28;20017;-83
2022/08/20 08:21:19;;;;;;;14.40;6.50;;;24.10;99.90;;;;;;5040383;28;20679;-92
2022/08/20 08:23:45;;;;;;;21.00;7.53;;;23.80;99.90;;;;;;5059421;28;20019;-77
2022/08/20 08:26:13;;;;;;;15.85;6.88;;;23.60;99.90;;;;;;5058589;28;20028;-83
2022/08/20 08:28:40;;;;;;;20.33;7.50;;;23.60;99.90;;;;;;5089952;28;20023;-78
2022/08/20 08:31:06;;;;;;;14.15;6.82;;;23.50;99.90;;;;;;5094261;28;20061;-76
2022/08/20 08:33:32;;;;;;;17.92;6.63;;;23.20;99.90;;;;;;5098871;28;20058;-83
2022/08/20 08:36:06;;;;;;;20.58;5.95;;;23.20;99.90;;;;;;5109300;28;20072;-77
2022/08/20 08:38:33;;;;;;;17.42;6.28;;;22.00;99.90;;;;;;5103268;28;20787;-84
2022/08/20 08:41:20;;;;;;;16.98;6.40;;;23.20;99.90;;;;;;5107476;28;20699;-79
2022/08/20 08:43:48;;;;;;;14.02;6.28;;;23.20;99.90;;;;;;5106795;28;20764;-84
2022/08/20 08:46:20;;;;;;;18.90;6.40;;;23.20;99.90;;;;;;5103984;28;20028;-81
2022/08/20 08:48:49;;;;;;;21.13;7.63;;;23.30;99.90;;;;;;5082406;28;20039;-82
2022/08/20 08:51:40;;;;;;;20.05;6.97;;;23.00;99.90;;;;;;5102058;28;20027;-78
2022/08/20 08:54:07;;;;;;;25.70;7.60;;;23.50;99.90;;;;;;5048572;28;20029;-91
2022/08/20 08:56:33;;;;;;;20.38;6.93;;;;;;;;;;5062860;28;20024;-83
2022/08/20 08:59:07;;;;;;;20.13;6.95;;;23.60;99.90;;;;;;5084202;28;20032;-81
2022/08/20 09:01:47;;;;;;;17.23;6.68;;;23.90;99.90;;;;;;5077323;28;20224;-84
2022/08/20 09:04:15;;;;;;;19.45;7.15;;;23.50;99.90;;;;;;5094203;28;20073;-77
2022/08/20 09:06:42;;;;;;;15.25;6.90;;;23.40;99.90;;;;;;5081853;28;20021;-78
2022/08/20 09:09:23;;;;;;;19.73;7.72;;;23.50;99.90;;;;;;5082277;28;20032;-86
2022/08/20 09:11:53;;;;;;;15.75;6.57;;;23.70;99.90;;;;;;5077961;28;20016;-84
2022/08/20 09:14:23;;;;;;;20.65;8.45;;;23.60;99.90;;;;;;5063505;28;20150;-76
2022/08/20 09:16:50;;;;;;;14.93;7.70;;;23.50;99.90;;;;;;5080818;28;20108;-80
2022/08/20 09:19:16;;;;;;;18.92;7.32;;;23.40;99.90;;;;;;5081830;28;20031;-80
2022/08/20 09:21:42;;;;;;;18.60;6.82;;;23.20;99.90;;;;;;5083482;28;20027;-82
2022/08/20 09:24:08;;;;;;;18.73;7.32;;;;;;;;;;5082633;28;20046;-84
2022/08/20 09:26:35;;;;;;;19.02;7.32;;;23.20;99.90;;;;;;5064971;28;20110;-81
2022/08/20 09:29:01;;;;;;;20.10;7.05;;;23.20;99.90;;;;;;5082369;28;20523;-82
2022/08/20 09:31:26;;;;;;;18.23;6.93;;;23.30;99.90;;;;;;5083483;28;20103;-82
2022/08/20 09:33:53;;;;;;;16.75;6.03;;;23.50;99.90;;;;;;5081782;28;20053;-83
2022/08/20 09:36:18;;;;;;;15.82;6.43;;;23.70;99.90;;;;;;5064132;28;20238;-77
2022/08/20 09:38:44;;;;;;;14.55;6.50;;;;;;;;;;5092857;28;20114;-82
2022/08/20 09:41:10;;;;;;;20.52;7.05;;;23.90;99.90;;;;;;5071652;28;20119;-80
2022/08/20 09:43:36;;;;;;;16.67;6.50;;;23.90;99.90;;;;;;5067528;28;20075;-79
2022/08/20 09:46:02;;;;;;;17.45;7.57;;;23.70;99.90;;;;;;5085925;28;20021;-85
2022/08/20 09:48:28;;;;;;;16.40;6.60;;;23.80;99.90;;;;;;5086153;28;20318;-78
2022/08/20 09:50:54;;;;;;;25.05;8.38;;;23.80;99.90;;;;;;5085171;28;20039;-79
2022/08/20 09:53:20;;;;;;;22.50;8.88;;;24.10;99.90;;;;;;5082903;28;20099;-78
2022/08/20 09:55:53;;;;;;;17.45;8.30;;;23.90;99.90;;;;;;5062950;28;20091;-82
2022/08/20 09:58:56;;;;;;;27.30;11.82;;;23.90;99.90;;;;;;5081215;28;20047;-78
2022/08/20 10:01:22;;;;;;;19.85;9.70;;;23.70;99.90;;;;;;5062473;28;20028;-83
2022/08/20 10:03:49;;;;;;;19.38;8.73;;;23.70;99.90;;;;;;5061788;28;20063;-76
2022/08/20 10:06:16;;;;;;;24.65;8.82;;;23.60;99.90;;;;;;5080714;28;20023;-75
2022/08/20 10:08:43;;;;;;;19.17;8.63;;;23.50;99.90;;;;;;5081183;28;20024;-81
2022/08/20 10:11:09;;;;;;;18.98;8.80;;;23.20;99.90;;;;;;5081925;28;20555;-82
2022/08/20 10:13:35;;;;;;;22.50;9.20;;;23.30;99.90;;;;;;5081520;28;20020;-76
2022/08/20 10:16:00;;;;;;;18.40;7.97;;;23.30;99.90;;;;;;5081711;28;20077;-78
2022/08/20 10:18:26;;;;;;;18.60;11.52;;;23.00;99.90;;;;;;5063977;28;20035;-87
2022/08/20 10:20:52;;;;;;;17.23;8.85;;;23.50;99.90;;;;;;5081401;28;20063;-86
2022/08/20 10:23:18;;;;;;;19.77;8.48;;;22.90;99.90;;;;;;5063800;28;20666;-83
2022/08/20 10:25:44;;;;;;;20.63;9.05;;;22.90;99.90;;;;;;5081915;28;20036;-82
2022/08/20 10:28:09;;;;;;;25.75;8.27;;;23.10;99.90;;;;;;5082592;28;20070;-79
2022/08/20 10:30:35;;;;;;;17.83;8.02;;;22.90;99.90;;;;;;5064098;28;20162;-78
2022/08/20 10:33:01;;;;;;;18.40;7.93;;;23.00;99.90;;;;;;5083738;28;20020;-75
2022/08/20 10:35:28;;;;;;;19.67;7.93;;;23.20;99.90;;;;;;5080911;28;20027;-83
2022/08/20 10:37:53;;;;;;;22.40;9.18;;;23.40;99.90;;;;;;5080920;28;20497;-83
2022/08/20 10:40:20;;;;;;;17.95;7.72;;;23.70;99.90;;;;;;5062217;28;20068;-83
2022/08/20 10:42:46;;;;;;;18.65;7.93;;;24.00;99.90;;;;;;5066672;28;20023;-79
2022/08/20 10:45:14;;;;;;;22.85;9.27;;;24.20;99.90;;;;;;5080901;28;20054;-82
2022/08/20 10:47:44;;;;;;;21.10;8.52;;;24.20;99.90;;;;;;5079876;28;20019;-87
2022/08/20 10:50:20;;;;;;;21.48;8.23;;;24.30;99.90;;;;;;5062305;28;20048;-76
2022/08/20 10:52:46;;;;;;;19.35;7.63;;;25.10;99.90;;;;;;5061511;28;20517;-79
2022/08/20 10:55:12;;;;;;;19.05;7.88;;;24.40;99.90;;;;;;5061685;28;20028;-83
2022/08/20 10:57:44;;;;;;;20.15;8.07;;;24.60;99.90;;;;;;5079605;28;20027;-83
2022/08/20 11:00:16;;;;;;;18.80;8.48;;;25.20;99.90;;;;;;5061961;28;20673;-81
2022/08/20 11:02:42;;;;;;;17.33;8.07;;;;;;;;;;5062657;28;20536;-79
2022/08/20 11:05:08;;;;;;;23.02;9.40;;;25.20;99.90;;;;;;5081484;28;20020;-86
2022/08/20 11:07:37;;;;;;;24.55;8.88;;;25.30;99.90;;;;;;5080756;28;20286;-87
2022/08/20 11:10:11;;;;;;;20.58;8.68;;;25.40;99.90;;;;;;5080886;28;20020;-82
2022/08/20 11:12:36;;;;;;;;;;;26.10;99.90;;;;;;5064235;28;20035;-81
2022/08/20 11:15:03;;;;;;;21.15;9.15;;;26.30;99.90;;;;;;5084457;28;19907;-79
2022/08/20 11:17:33;;;;;;;20.70;10.25;;;26.30;99.90;;;;;;5068394;28;20027;-76
2022/08/20 11:19:59;;;;;;;17.13;8.60;;;26.80;99.90;;;;;;5061718;28;20031;-80
2022/08/20 11:22:26;;;;;;;19.48;8.95;;;27.30;99.50;;;;;;5066399;28;20024;-82
2022/08/20 11:24:52;;;;;;;21.52;10.40;;;27.50;98.70;;;;;;5064392;28;20028;-81
2022/08/20 11:27:29;;;;;;;26.23;10.07;;;27.50;98.60;;;;;;5062178;28;20028;-79
2022/08/20 11:29:55;;;;;;;25.30;10.68;;;27.90;98.30;;;;;;5062553;28;20096;-77
2022/08/20 11:32:21;;;;;;;21.20;9.55;;;28.50;97.90;;;;;;5080630;28;20398;-78
2022/08/20 11:34:50;;;;;;;24.40;12.10;;;28.20;97.10;;;;;;5062278;28;20032;-77
2022/08/20 11:37:18;;;;;;;19.58;10.50;;;28.10;97.60;;;;;;5061020;28;20625;-77
2022/08/20 11:39:47;;;;;;;23.77;11.27;;;28.50;96.90;;;;;;5079702;28;20052;-80
2022/08/20 11:42:12;;;;;;;16.95;9.48;;;28.40;96.50;;;;;;5079996;28;20020;-78
2022/08/20 11:45:09;;;;;;;18.23;10.13;;;28.90;95.90;;;;;;5079855;28;20495;-81
2022/08/20 11:47:36;;;;;;;23.75;11.35;;;25.50;95.20;;;;;;4995844;28;20059;-76
2022/08/20 11:50:17;;;;;;;22.30;10.40;;;29.80;94.60;;;;;;4980375;28;20622;-74
2022/08/20 11:52:43;;;;;;;17.92;10.35;;;30.10;93.80;;;;;;4996111;28;20597;-80
2022/08/20 11:55:11;;;;;;;19.55;11.15;;;30.30;93.50;;;;;;4998726;28;20030;-83
2022/08/20 11:57:45;;;;;;;21.58;9.90;;;30.20;93.20;;;;;;4997065;28;20299;-82
2022/08/20 12:00:16;;;;;;;19.20;10.18;;;29.50;92.80;;;;;;4979451;28;20040;-76
2022/08/20 12:02:42;;;;;;;21.65;11.68;;;30.50;92.50;;;;;;4996515;28;20651;-79
2022/08/20 12:10:48;;;;;;;28.65;12.32;;;30.80;91.20;;;;;;5039007;28;20053;-86
2022/08/20 12:13:22;;;;;;;23.02;10.80;;;31.10;91.90;;;;;;5039144;28;20108;-78
2022/08/20 12:15:49;;;;;;;23.60;12.10;;;31.10;91.10;;;;;;5018346;28;20028;-80
2022/08/20 12:18:17;;;;;;;21.20;11.07;;;32.50;90.60;;;;;;5019839;28;20029;-78
2022/08/20 12:20:43;;;;;;;16.95;10.45;;;29.50;89.40;;;;;;5021863;28;20095;-80
2022/08/20 12:23:17;;;;;;;21.67;11.55;;;31.40;89.30;;;;;;5044626;28;20021;-82
2022/08/20 12:25:43;;;;;;;24.77;11.80;;;31.60;89.60;;;;;;5045333;28;20013;-88
2022/08/20 12:28:22;;;;;;;24.08;12.07;;;31.80;89.70;;;;;;5045450;28;20017;-80
2022/08/20 12:30:48;;;;;;;20.35;10.25;;;30.90;87.50;;;;;;5049603;28;20037;-78
2022/08/20 12:33:16;;;;;;;24.67;11.75;;;32.10;89.90;;;;;;5046240;28;20070;-79
2022/08/20 12:35:43;;;;;;;19.95;11.38;;;32.10;88.30;;;;;;5051001;28;20021;-84
2022/08/20 12:38:09;;;;;;;24.63;11.10;;;32.70;87.30;;;;;;5048791;28;20714;-75
2022/08/20 12:40:39;;;;;;;24.15;11.50;;;33.20;85.60;;;;;;5049087;28;20029;-79
2022/08/20 12:43:05;;;;;;;22.95;10.82;;;33.60;82.70;;;;;;5046459;28;20020;-79
2022/08/20 12:45:32;;;;;;;20.80;10.77;;;33.60;81.40;;;;;;5043812;28;20036;-76
2022/08/20 12:48:10;;;;;;;18.25;10.48;;;34.00;82.10;;;;;;5046795;28;20601;-75
2022/08/20 12:50:38;;;;;;;20.25;11.23;;;34.30;79.50;;;;;;5043780;28;20514;-82
2022/08/20 12:53:04;;;;;;;18.02;10.13;;;33.60;77.80;;;;;;5042563;28;20032;-79
2022/08/20 12:55:30;;;;;;;19.38;10.23;;;34.30;79.00;;;;;;5042760;28;20028;-78
2022/08/20 12:57:59;;;;;;;20.70;10.55;;;33.90;79.80;;;;;;5042559;28;20392;-81
2022/08/20 13:00:30;;;;;;;19.95;10.90;;;33.00;80.50;;;;;;5041892;28;20687;-74
2022/08/20 13:02:58;;;;;;;17.85;11.40;;;32.30;82.70;;;;;;5041278;28;20029;-75
2022/08/20 13:05:26;;;;;;;23.55;11.80;;;31.20;85.50;;;;;;5041926;28;20021;-78
2022/08/20 13:07:52;;;;;;;18.67;10.35;;;31.40;86.40;;;;;;5023752;28;20229;-75
2022/08/20 13:10:24;;;;;;;20.05;11.50;;;30.40;88.00;;;;;;5041602;28;20707;-75
2022/08/20 13:12:50;;;;;;;26.55;12.40;;;30.40;90.00;;;;;;5024340;28;20032;-75
2022/08/20 13:15:16;;;;;;;24.75;12.80;;;29.90;90.90;;;;;;5041009;28;20025;-79
2022/08/20 13:17:42;;;;;;;23.45;12.38;;;29.00;91.30;;;;;;5040257;28;20025;-79
2022/08/20 13:20:12;;;;;;;23.63;13.20;;;28.20;92.60;;;;;;5041444;28;20106;-75
2022/08/20 13:22:38;;;;;;;26.23;12.50;;;27.60;93.90;;;;;;5021376;28;20010;-79
2022/08/20 13:25:05;;;;;;;22.15;12.00;;;27.20;95.30;;;;;;5039166;28;20025;-78
2022/08/20 13:27:31;;;;;;;23.13;13.05;;;26.70;96.70;;;;;;5041407;28;20266;-76
2022/08/20 13:29:57;;;;;;;25.98;13.40;;;26.30;97.60;;;;;;5023680;28;20507;-79
2022/08/20 13:32:23;;;;;;;28.13;12.55;;;26.00;98.40;;;;;;5040952;28;20033;-75
2022/08/20 13:34:50;;;;;;;25.98;12.55;;;25.70;99.10;;;;;;5041028;28;20738;-75
2022/08/20 13:37:26;;;;;;;22.83;12.75;;;25.40;99.80;;;;;;5040395;28;20025;-76
2022/08/20 13:39:54;;;;;;;28.17;13.85;;;25.00;99.90;;;;;;5040093;28;20045;-77
2022/08/20 13:42:20;;;;;;;21.92;10.95;;;24.90;99.90;;;;;;5040038;28;20025;-75
2022/08/20 13:44:46;;;;;;;22.98;12.45;;;24.80;99.90;;;;;;5023141;28;20078;-74
2022/08/20 13:47:18;;;;;;;22.40;12.35;;;24.50;99.90;;;;;;5040791;28;20025;-75
2022/08/20 13:49:45;;;;;;;26.27;12.40;;;24.50;99.90;;;;;;5041210;28;20026;-83